sensor_id;sensor_type;location;lat;lon;timestamp;pressure;altitude;pressure_sealevel;temperature;humidity
48404;BME280;34202;52.536;6.042;2023-03-25T00:04:01;100096.13;;;9.09;99.54
48404;BME280;34202;52.536;6.042;2023-03-25T00:09:03;100093.16;;;9.08;99.67
48404;BME280;34202;52.536;6.042;2023-03-25T00:14:04;100093.86;;;9.08;99.65
48404;BME280;34202;52.536;6.042;2023-03-25T00:19:04;100092.14;;;9.07;99.85
48404;BME280;34202;52.536;6.042;2023-03-25T00:24:05;100093.52;;;9.06;100.00
48404;BME280;34202;52.536;6.042;2023-03-25T00:29:06;100089.70;;;9.05;100.00
48404;BME280;34202;52.536;6.042;2023-03-25T00:34:06;100083.98;;;9.02;100.00
48404;BME280;34202;52.536;6.042;2023-03-25T00:39:08;100085.88;;;8.99;100.00
48404;BME280;34202;52.536;6.042;2023-03-25T00:44:10;100081.20;;;8.98;100.00
48404;BME280;34202;52.536;6.042;2023-03-25T00:49:16;100080.83;;;8.97;100.00
48404;BME280;34202;52.536;6.042;2023-03-25T00:54:17;100079.11;;;8.98;100.00
48404;BME280;34202;52.536;6.042;2023-03-25T00:59:17;100072.50;;;8.97;100.00
48404;BME280;34202;52.536;6.042;2023-03-25T01:04:18;100079.98;;;8.98;100.00
48404;BME280;34202;52.536;6.042;2023-03-25T01:09:19;100087.09;;;8.97;100.00
48404;BME280;34202;52.536;6.042;2023-03-25T01:14:21;100084.48;;;8.93;100.00
48404;BME280;34202;52.536;6.042;2023-03-25T01:19:23;100097.13;;;8.87;100.00
48404;BME280;34202;52.536;6.042;2023-03-25T01:24:24;100096.95;;;8.80;100.00
48404;BME280;34202;52.536;6.042;2023-03-25T01:29:24;100094.16;;;8.71;100.00
48404;BME280;34202;52.536;6.042;2023-03-25T01:34:25;100096.56;;;8.64;100.00
48404;BME280;34202;52.536;6.042;2023-03-25T01:39:25;100090.82;;;8.58;100.00
48404;BME280;34202;52.536;6.042;2023-03-25T01:49:32;100080.75;;;8.50;100.00
48404;BME280;34202;52.536;6.042;2023-03-25T01:54:33;100083.86;;;8.48;100.00
48404;BME280;34202;52.536;6.042;2023-03-25T01:59:35;100080.05;;;8.46;100.00
48404;BME280;34202;52.536;6.042;2023-03-25T02:04:54;100068.23;;;8.43;100.00
48404;BME280;34202;52.536;6.042;2023-03-25T02:10:03;100075.13;;;8.40;100.00
48404;BME280;34202;52.536;6.042;2023-03-25T02:15:06;100067.67;;;8.38;100.00
48404;BME280;34202;52.536;6.042;2023-03-25T02:25:38;100061.93;;;8.34;100.00
48404;BME280;34202;52.536;6.042;2023-03-25T02:41:22;100062.96;;;8.31;100.00
48404;BME280;34202;52.536;6.042;2023-03-25T02:46:25;100060.02;;;8.31;100.00
48404;BME280;34202;52.536;6.042;2023-03-25T02:51:29;100058.80;;;8.32;100.00
48404;BME280;34202;52.536;6.042;2023-03-25T02:56:31;100054.64;;;8.32;100.00
48404;BME280;34202;52.536;6.042;2023-03-25T03:01:34;100058.45;;;8.32;100.00
48404;BME280;34202;52.536;6.042;2023-03-25T03:06:39;100054.64;;;8.32;100.00
48404;BME280;34202;52.536;6.042;2023-03-25T03:11:56;100048.39;;;8.32;100.00
48404;BME280;34202;52.536;6.042;2023-03-25T03:17:11;100046.31;;;8.32;100.00
48404;BME280;34202;52.536;6.042;2023-03-25T03:22:44;100047.35;;;8.30;100.00
48404;BME280;34202;52.536;6.042;2023-03-25T03:33:10;100042.83;;;8.28;100.00
48404;BME280;34202;52.536;6.042;2023-03-25T03:38:18;100045.61;;;8.28;100.00
48404;BME280;34202;52.536;6.042;2023-03-25T03:43:32;100047.34;;;8.28;100.00
48404;BME280;34202;52.536;6.042;2023-03-25T03:48:39;100041.97;;;8.27;100.00
48404;BME280;34202;52.536;6.042;2023-03-25T03:54:08;100043.87;;;8.26;100.00
48404;BME280;34202;52.536;6.042;2023-03-25T03:59:14;100044.38;;;8.26;100.00
48404;BME280;34202;52.536;6.042;2023-03-25T04:04:21;100036.75;;;8.25;100.00
48404;BME280;34202;52.536;6.042;2023-03-25T04:14:41;100036.41;;;8.25;100.00
48404;BME280;34202;52.536;6.042;2023-03-25T04:19:42;100045.08;;;8.25;100.00
48404;BME280;34202;52.536;6.042;2023-03-25T04:24:48;100039.70;;;8.25;100.00
48404;BME280;34202;52.536;6.042;2023-03-25T04:29:51;100033.46;;;8.24;100.00
48404;BME280;34202;52.536;6.042;2023-03-25T04:34:51;100031.38;;;8.23;100.00
48404;BME280;34202;52.536;6.042;2023-03-25T04:39:56;100022.02;;;8.22;100.00
48404;BME280;34202;52.536;6.042;2023-03-25T04:44:59;100026.52;;;8.22;100.00
48404;BME280;34202;52.536;6.042;2023-03-25T04:49:59;100026.34;;;8.20;100.00
48404;BME280;34202;52.536;6.042;2023-03-25T04:55:00;100015.41;;;8.17;100.00
48404;BME280;34202;52.536;6.042;2023-03-25T05:00:01;100015.23;;;8.15;100.00
48404;BME280;34202;52.536;6.042;2023-03-25T05:05:04;100017.48;;;8.13;100.00
48404;BME280;34202;52.536;6.042;2023-03-25T05:10:05;100016.09;;;8.12;100.00
48404;BME280;34202;52.536;6.042;2023-03-25T05:15:10;100018.67;;;8.09;100.00
48404;BME280;34202;52.536;6.042;2023-03-25T05:20:12;100023.16;;;8.04;100.00
48404;BME280;34202;52.536;6.042;2023-03-25T05:25:13;100024.19;;;8.00;100.00
48404;BME280;34202;52.536;6.042;2023-03-25T05:30:15;100023.48;;;7.97;100.00
48404;BME280;34202;52.536;6.042;2023-03-25T05:35:15;100031.11;;;7.96;100.00
48404;BME280;34202;52.536;6.042;2023-03-25T05:40:15;100034.74;;;7.96;100.00
48404;BME280;34202;52.536;6.042;2023-03-25T05:45:16;100031.79;;;7.94;100.00
48404;BME280;34202;52.536;6.042;2023-03-25T05:50:17;100035.92;;;7.91;100.00
48404;BME280;34202;52.536;6.042;2023-03-25T05:55:20;100037.48;;;7.91;100.00
48404;BME280;34202;52.536;6.042;2023-03-25T06:00:21;100046.66;;;7.91;100.00
48404;BME280;34202;52.536;6.042;2023-03-25T06:05:22;100049.27;;;7.92;100.00
48404;BME280;34202;52.536;6.042;2023-03-25T06:10:22;100048.75;;;7.91;100.00
48404;BME280;34202;52.536;6.042;2023-03-25T06:15:24;100052.23;;;7.91;100.00
48404;BME280;34202;52.536;6.042;2023-03-25T06:20:38;100058.98;;;7.89;100.00
48404;BME280;34202;52.536;6.042;2023-03-25T06:25:38;100064.69;;;7.88;100.00
48404;BME280;34202;52.536;6.042;2023-03-25T06:30:38;100059.32;;;7.91;100.00
48404;BME280;34202;52.536;6.042;2023-03-25T06:35:42;100058.64;;;7.95;100.00
48404;BME280;34202;52.536;6.042;2023-03-25T06:40:42;100062.84;;;8.02;100.00
48404;BME280;34202;52.536;6.042;2023-03-25T06:45:43;100063.73;;;8.09;100.00
48404;BME280;34202;52.536;6.042;2023-03-25T06:50:43;100064.29;;;8.15;100.00
48404;BME280;34202;52.536;6.042;2023-03-25T06:55:44;100058.05;;;8.20;100.00
48404;BME280;34202;52.536;6.042;2023-03-25T07:00:52;100061.03;;;8.24;100.00
48404;BME280;34202;52.536;6.042;2023-03-25T07:05:53;100064.34;;;8.29;100.00
48404;BME280;34202;52.536;6.042;2023-03-25T07:11:03;100064.70;;;8.35;100.00
48404;BME280;34202;52.536;6.042;2023-03-25T07:16:04;100066.46;;;8.40;100.00
48404;BME280;34202;52.536;6.042;2023-03-25T07:21:05;100076.55;;;8.43;100.00
48404;BME280;34202;52.536;6.042;2023-03-25T07:26:06;100077.41;;;8.42;100.00
48404;BME280;34202;52.536;6.042;2023-03-25T07:31:11;100079.82;;;8.41;100.00
48404;BME280;34202;52.536;6.042;2023-03-25T07:36:12;100078.97;;;8.42;100.00
48404;BME280;34202;52.536;6.042;2023-03-25T07:41:13;100080.73;;;8.47;100.00
48404;BME280;34202;52.536;6.042;2023-03-25T07:46:13;100082.13;;;8.51;100.00
48404;BME280;34202;52.536;6.042;2023-03-25T07:51:14;100079.55;;;8.58;100.00
48404;BME280;34202;52.536;6.042;2023-03-25T07:56:15;100079.73;;;8.64;100.00
48404;BME280;34202;52.536;6.042;2023-03-25T08:01:15;100082.17;;;8.67;100.00
48404;BME280;34202;52.536;6.042;2023-03-25T08:06:16;100081.30;;;8.69;100.00
48404;BME280;34202;52.536;6.042;2023-03-25T08:11:16;100084.96;;;8.74;100.00
48404;BME280;34202;52.536;6.042;2023-03-25T08:16:16;100086.73;;;8.80;100.00
48404;BME280;34202;52.536;6.042;2023-03-25T08:21:18;100093.83;;;8.87;100.00
48404;BME280;34202;52.536;6.042;2023-03-25T08:26:24;100096.10;;;8.94;100.00
48404;BME280;34202;52.536;6.042;2023-03-25T08:31:26;100096.46;;;8.98;100.00
48404;BME280;34202;52.536;6.042;2023-03-25T08:36:30;100098.72;;;9.03;100.00
48404;BME280;34202;52.536;6.042;2023-03-25T08:41:30;100100.27;;;9.04;100.00
48404;BME280;34202;52.536;6.042;2023-03-25T08:46:31;100103.41;;;9.04;100.00
48404;BME280;34202;52.536;6.042;2023-03-25T08:51:31;100096.30;;;9.09;100.00
48404;BME280;34202;52.536;6.042;2023-03-25T08:56:31;100104.29;;;9.16;100.00
48404;BME280;34202;52.536;6.042;2023-03-25T09:01:32;100108.80;;;9.20;100.00
48404;BME280;34202;52.536;6.042;2023-03-25T09:06:32;100110.36;;;9.23;100.00
48404;BME280;34202;52.536;6.042;2023-03-25T09:11:33;100120.78;;;9.25;100.00
48404;BME280;34202;52.536;6.042;2023-03-25T09:16:33;100116.80;;;9.26;100.00
48404;BME280;34202;52.536;6.042;2023-03-25T09:21:34;100119.06;;;9.32;100.00
48404;BME280;34202;52.536;6.042;2023-03-25T09:26:35;100121.83;;;9.39;100.00
48404;BME280;34202;52.536;6.042;2023-03-25T09:31:36;100120.62;;;9.41;100.00
48404;BME280;34202;52.536;6.042;2023-03-25T09:36:36;100130.86;;;9.45;100.00
48404;BME280;34202;52.536;6.042;2023-03-25T09:42:07;100142.16;;;9.44;100.00
48404;BME280;34202;52.536;6.042;2023-03-25T09:47:08;100138.85;;;9.41;100.00
48404;BME280;34202;52.536;6.042;2023-03-25T09:52:15;100139.71;;;9.41;100.00
48404;BME280;34202;52.536;6.042;2023-03-25T09:57:21;100138.34;;;9.43;100.00
48404;BME280;34202;52.536;6.042;2023-03-25T10:02:41;100139.20;;;9.45;100.00
48404;BME280;34202;52.536;6.042;2023-03-25T10:08:33;100146.85;;;9.40;100.00
48404;BME280;34202;52.536;6.042;2023-03-25T10:13:34;100149.45;;;9.37;100.00
48404;BME280;34202;52.536;6.042;2023-03-25T10:24:23;100152.75;;;9.48;100.00
48404;BME280;34202;52.536;6.042;2023-03-25T10:30:14;100155.70;;;9.61;100.00
48404;BME280;34202;52.536;6.042;2023-03-25T10:34:54;100148.55;;;9.83;100.00
48404;BME280;34202;52.536;6.042;2023-03-25T10:40:08;100147.30;;;10.02;100.00
48404;BME280;34202;52.536;6.042;2023-03-25T10:45:14;100152.33;;;10.12;100.00
48404;BME280;34202;52.536;6.042;2023-03-25T10:50:16;100145.88;;;10.19;100.00
48404;BME280;34202;52.536;6.042;2023-03-25T10:55:27;100150.04;;;10.22;100.00
48404;BME280;34202;52.536;6.042;2023-03-25T11:00:31;100153.33;;;10.26;100.00
48404;BME280;34202;52.536;6.042;2023-03-25T11:05:33;100156.83;;;10.33;100.00
48404;BME280;34202;52.536;6.042;2023-03-25T11:10:34;100156.78;;;10.43;100.00
48404;BME280;34202;52.536;6.042;2023-03-25T11:15:36;100161.09;;;10.55;100.00
48404;BME280;34202;52.536;6.042;2023-03-25T11:20:39;100161.92;;;10.63;100.00
48404;BME280;34202;52.536;6.042;2023-03-25T11:25:45;100163.64;;;10.70;100.00
48404;BME280;34202;52.536;6.042;2023-03-25T11:31:06;100155.23;;;10.81;100.00
48404;BME280;34202;52.536;6.042;2023-03-25T11:36:23;100158.32;;;10.91;100.00
48404;BME280;34202;52.536;6.042;2023-03-25T11:41:30;100157.58;;;10.98;100.00
48404;BME280;34202;52.536;6.042;2023-03-25T11:46:33;100156.52;;;10.98;100.00
48404;BME280;34202;52.536;6.042;2023-03-25T11:51:35;100153.71;;;11.04;100.00
48404;BME280;34202;52.536;6.042;2023-03-25T11:56:40;100154.85;;;11.17;100.00
48404;BME280;34202;52.536;6.042;2023-03-25T12:01:47;100153.31;;;11.36;100.00
48404;BME280;34202;52.536;6.042;2023-03-25T12:17:40;100157.11;;;11.64;99.15
48404;BME280;34202;52.536;6.042;2023-03-25T12:23:01;100153.11;;;11.62;98.07
48404;BME280;34202;52.536;6.042;2023-03-25T12:33:27;100147.80;;;11.72;97.55
48404;BME280;34202;52.536;6.042;2023-03-25T13:05:24;100141.37;;;12.25;94.05
48404;BME280;34202;52.536;6.042;2023-03-25T13:10:33;100139.65;;;12.22;93.56
48404;BME280;34202;52.536;6.042;2023-03-25T13:15:39;100132.92;;;12.30;93.93
48404;BME280;34202;52.536;6.042;2023-03-25T13:20:54;100126.55;;;12.39;93.72
48404;BME280;34202;52.536;6.042;2023-03-25T13:26:17;100133.02;;;12.51;93.58
48404;BME280;34202;52.536;6.042;2023-03-25T13:31:22;100136.91;;;12.61;92.51
48404;BME280;34202;52.536;6.042;2023-03-25T13:36:36;100138.34;;;12.72;91.26
48404;BME280;34202;52.536;6.042;2023-03-25T13:41:49;100127.36;;;12.84;90.39
48404;BME280;34202;52.536;6.042;2023-03-25T13:47:18;100131.72;;;12.97;90.38
48404;BME280;34202;52.536;6.042;2023-03-25T13:52:25;100130.60;;;13.13;89.10
48404;BME280;34202;52.536;6.042;2023-03-25T14:03:11;100150.48;;;13.29;87.45
48404;BME280;34202;52.536;6.042;2023-03-25T14:13:59;100157.68;;;13.02;83.67
48404;BME280;34202;52.536;6.042;2023-03-25T14:19:07;100168.88;;;12.87;84.44
48404;BME280;34202;52.536;6.042;2023-03-25T14:24:17;100171.91;;;12.81;84.21
48404;BME280;34202;52.536;6.042;2023-03-25T14:29:38;100184.30;;;12.68;83.82
48404;BME280;34202;52.536;6.042;2023-03-25T14:34:39;100203.52;;;12.52;83.72
48404;BME280;34202;52.536;6.042;2023-03-25T14:39:40;100213.89;;;12.31;84.63
48404;BME280;34202;52.536;6.042;2023-03-25T14:44:43;100219.19;;;12.05;84.72
48404;BME280;34202;52.536;6.042;2023-03-25T14:54:53;100218.82;;;11.62;86.16
48404;BME280;34202;52.536;6.042;2023-03-25T15:00:05;100237.05;;;11.47;86.95
48404;BME280;34202;52.536;6.042;2023-03-25T15:05:23;100255.46;;;11.25;87.85
48404;BME280;34202;52.536;6.042;2023-03-25T15:10:31;100242.70;;;11.00;89.03
48404;BME280;34202;52.536;6.042;2023-03-25T15:20:51;100254.02;;;10.55;90.56
48404;BME280;34202;52.536;6.042;2023-03-25T15:25:53;100267.44;;;10.40;90.92
48404;BME280;34202;52.536;6.042;2023-03-25T15:42:17;100276.30;;;10.21;92.60
48404;BME280;34202;52.536;6.042;2023-03-25T15:47:45;100283.08;;;10.19;93.29
48404;BME280;34202;52.536;6.042;2023-03-25T15:58:29;100299.25;;;10.18;93.66
48404;BME280;34202;52.536;6.042;2023-03-25T16:03:31;100308.81;;;10.17;93.66
48404;BME280;34202;52.536;6.042;2023-03-25T16:08:37;100314.73;;;10.15;94.05
48404;BME280;34202;52.536;6.042;2023-03-25T16:13:40;100328.82;;;10.14;94.21
48404;BME280;34202;52.536;6.042;2023-03-25T16:18:42;100338.04;;;10.09;93.94
48404;BME280;34202;52.536;6.042;2023-03-25T16:23:44;100349.15;;;10.03;93.71
48404;BME280;34202;52.536;6.042;2023-03-25T16:28:44;100360.45;;;9.96;93.82
48404;BME280;34202;52.536;6.042;2023-03-25T16:33:45;100369.82;;;9.91;94.34
48404;BME280;34202;52.536;6.042;2023-03-25T16:38:45;100372.23;;;9.85;94.43
48404;BME280;34202;52.536;6.042;2023-03-25T16:43:46;100374.13;;;9.77;94.33
48404;BME280;34202;52.536;6.042;2023-03-25T16:48:50;100381.75;;;9.70;94.68
48404;BME280;34202;52.536;6.042;2023-03-25T16:53:53;100386.78;;;9.64;95.01
48404;BME280;34202;52.536;6.042;2023-03-25T17:04:14;100397.00;;;9.55;95.71
48404;BME280;34202;52.536;6.042;2023-03-25T17:09:18;100404.81;;;9.52;95.94
48404;BME280;34202;52.536;6.042;2023-03-25T17:14:31;100410.00;;;9.49;96.24
48404;BME280;34202;52.536;6.042;2023-03-25T17:19:32;100414.85;;;9.43;96.41
48404;BME280;34202;52.536;6.042;2023-03-25T17:24:39;100423.51;;;9.41;96.62
48404;BME280;34202;52.536;6.042;2023-03-25T17:29:57;100428.70;;;9.37;96.66
48404;BME280;34202;52.536;6.042;2023-03-25T17:35:03;100440.50;;;9.33;96.71
48404;BME280;34202;52.536;6.042;2023-03-25T17:40:06;100451.75;;;9.28;96.67
48404;BME280;34202;52.536;6.042;2023-03-25T17:45:14;100458.67;;;9.25;96.67
48404;BME280;34202;52.536;6.042;2023-03-25T17:50:18;100465.25;;;9.20;96.57
48404;BME280;34202;52.536;6.042;2023-03-25T17:55:19;100469.56;;;9.16;96.59
48404;BME280;34202;52.536;6.042;2023-03-25T18:00:20;100477.88;;;9.12;96.99
48404;BME280;34202;52.536;6.042;2023-03-25T18:05:21;100484.80;;;9.08;97.02
48404;BME280;34202;52.536;6.042;2023-03-25T18:10:22;100489.11;;;9.05;97.25
48404;BME280;34202;52.536;6.042;2023-03-25T18:15:24;100494.98;;;9.01;97.55
48404;BME280;34202;52.536;6.042;2023-03-25T18:20:31;100504.50;;;8.98;97.80
48404;BME280;34202;52.536;6.042;2023-03-25T18:25:32;100511.94;;;8.96;98.18
48404;BME280;34202;52.536;6.042;2023-03-25T18:35:40;100518.17;;;8.93;98.66
48404;BME280;34202;52.536;6.042;2023-03-25T18:40:40;100526.16;;;8.92;98.82
48404;BME280;34202;52.536;6.042;2023-03-25T18:45:41;100531.53;;;8.91;99.13
48404;BME280;34202;52.536;6.042;2023-03-25T18:50:44;100529.60;;;8.89;99.28
48404;BME280;34202;52.536;6.042;2023-03-25T18:55:49;100532.20;;;8.88;99.52
48404;BME280;34202;52.536;6.042;2023-03-25T19:00:52;100538.08;;;8.87;99.76
48404;BME280;34202;52.536;6.042;2023-03-25T19:05:52;100543.80;;;8.86;99.80
48404;BME280;34202;52.536;6.042;2023-03-25T19:10:53;100552.30;;;8.85;100.00
48404;BME280;34202;52.536;6.042;2023-03-25T19:15:54;100558.36;;;8.85;100.00
48404;BME280;34202;52.536;6.042;2023-03-25T19:20:54;100567.21;;;8.84;100.00
48404;BME280;34202;52.536;6.042;2023-03-25T19:25:54;100571.54;;;8.83;100.00
48404;BME280;34202;52.536;6.042;2023-03-25T19:31:00;100568.77;;;8.83;100.00
48404;BME280;34202;52.536;6.042;2023-03-25T19:36:00;100569.12;;;8.83;100.00
48404;BME280;34202;52.536;6.042;2023-03-25T19:41:07;100572.41;;;8.84;100.00
48404;BME280;34202;52.536;6.042;2023-03-25T19:46:08;100580.59;;;8.85;100.00
48404;BME280;34202;52.536;6.042;2023-03-25T19:51:08;100581.97;;;8.86;100.00
48404;BME280;34202;52.536;6.042;2023-03-25T19:56:08;100580.58;;;8.86;100.00
48404;BME280;34202;52.536;6.042;2023-03-25T20:01:12;100586.32;;;8.86;100.00
48404;BME280;34202;52.536;6.042;2023-03-25T20:06:13;100589.78;;;8.86;100.00
48404;BME280;34202;52.536;6.042;2023-03-25T20:11:13;100589.60;;;8.84;100.00
48404;BME280;34202;52.536;6.042;2023-03-25T20:16:14;100593.41;;;8.84;100.00
48404;BME280;34202;52.536;6.042;2023-03-25T20:21:15;100592.88;;;8.82;100.00
48404;BME280;34202;52.536;6.042;2023-03-25T20:26:15;100593.36;;;8.78;100.00
48404;BME280;34202;52.536;6.042;2023-03-25T20:31:18;100593.48;;;8.74;100.00
48404;BME280;34202;52.536;6.042;2023-03-25T20:36:19;100594.13;;;8.69;100.00
48404;BME280;34202;52.536;6.042;2023-03-25T20:41:20;100594.95;;;8.64;100.00
48404;BME280;34202;52.536;6.042;2023-03-25T20:46:21;100592.46;;;8.59;100.00
48404;BME280;34202;52.536;6.042;2023-03-25T20:51:24;100592.40;;;8.54;100.00
48404;BME280;34202;52.536;6.042;2023-03-25T20:56:25;100595.66;;;8.50;100.00
48404;BME280;34202;52.536;6.042;2023-03-25T21:01:25;100597.71;;;8.48;100.00
48404;BME280;34202;52.536;6.042;2023-03-25T21:06:26;100601.66;;;8.44;100.00
48404;BME280;34202;52.536;6.042;2023-03-25T21:11:26;100606.09;;;8.40;99.97
48404;BME280;34202;52.536;6.042;2023-03-25T21:16:26;100614.01;;;8.35;99.59
48404;BME280;34202;52.536;6.042;2023-03-25T21:21:28;100617.40;;;8.29;99.72
48404;BME280;34202;52.536;6.042;2023-03-25T21:26:30;100622.02;;;8.24;99.54
48404;BME280;34202;52.536;6.042;2023-03-25T21:31:30;100631.33;;;8.20;99.48
48404;BME280;34202;52.536;6.042;2023-03-25T21:36:31;100638.88;;;8.14;99.26
48404;BME280;34202;52.536;6.042;2023-03-25T21:43:30;100641.99;;;8.13;99.52
48404;BME280;34202;52.536;6.042;2023-03-25T21:48:31;100653.19;;;8.08;99.53
48404;BME280;34202;52.536;6.042;2023-03-25T21:53:32;100659.55;;;8.05;99.52
48404;BME280;34202;52.536;6.042;2023-03-25T21:58:33;100667.14;;;8.03;99.68
48404;BME280;34202;52.536;6.042;2023-03-25T22:03:39;100673.17;;;8.00;99.96
48404;BME280;34202;52.536;6.042;2023-03-25T22:08:44;100683.36;;;7.98;99.96
48404;BME280;34202;52.536;6.042;2023-03-25T22:13:45;100688.69;;;7.95;100.00
48404;BME280;34202;52.536;6.042;2023-03-25T22:18:45;100691.63;;;7.94;100.00
48404;BME280;34202;52.536;6.042;2023-03-25T22:23:46;100696.47;;;7.93;100.00
48404;BME280;34202;52.536;6.042;2023-03-25T22:28:46;100703.73;;;7.92;100.00
48404;BME280;34202;52.536;6.042;2023-03-25T22:33:49;100704.94;;;7.92;100.00
48404;BME280;34202;52.536;6.042;2023-03-25T22:38:53;100703.55;;;7.92;100.00
48404;BME280;34202;52.536;6.042;2023-03-25T22:43:55;100711.70;;;7.91;100.00
48404;BME280;34202;52.536;6.042;2023-03-25T22:48:56;100710.10;;;7.89;100.00
48404;BME280;34202;52.536;6.042;2023-03-25T22:53:56;100719.61;;;7.88;100.00
48404;BME280;34202;52.536;6.042;2023-03-25T22:58:58;100724.41;;;7.85;100.00
48404;BME280;34202;52.536;6.042;2023-03-25T23:03:58;100726.95;;;7.81;100.00
48404;BME280;34202;52.536;6.042;2023-03-25T23:08:59;100735.20;;;7.77;100.00
48404;BME280;34202;52.536;6.042;2023-03-25T23:14:00;100746.74;;;7.73;100.00
48404;BME280;34202;52.536;6.042;2023-03-25T23:19:02;100746.02;;;7.71;100.00
48404;BME280;34202;52.536;6.042;2023-03-25T23:24:03;100747.39;;;7.70;100.00
48404;BME280;34202;52.536;6.042;2023-03-25T23:29:04;100749.65;;;7.70;100.00
48404;BME280;34202;52.536;6.042;2023-03-25T23:34:05;100752.59;;;7.71;100.00
48404;BME280;34202;52.536;6.042;2023-03-25T23:39:07;100757.27;;;7.71;100.00
48404;BME280;34202;52.536;6.042;2023-03-25T23:44:09;100753.30;;;7.72;100.00
48404;BME280;34202;52.536;6.042;2023-03-25T23:49:10;100757.11;;;7.72;100.00
48404;BME280;34202;52.536;6.042;2023-03-25T23:54:12;100755.20;;;7.71;100.00
48404;BME280;34202;52.536;6.042;2023-03-25T23:59:12;100760.58;;;7.72;100.00
